Hauptseite
METAR-TAF:

METAR-TAF

Flughäfen :

Ouagadougou, Burkina Faso

Flughafen Ouagadougou

Breite: 12-21N, Länge: 001-31W, Höhe: 316 m

Beobachtung

Neuester Wetterbericht von vor 2 Stunden und 8 Minuten, um 20:00 UTC
Wind 1 kt aus Nord/Nordwest
Temperatur 25°C
Luftfeuchtigkeit 79%
Luftdruck 1011 hPa
Sichtweite 10 km oder mehr
keine Wolken unter 1500 m und keine Kumulonimbus oder Gewitterwolken

METAR: DFFD 242000Z 34001KT CAVOK 25/21 Q1011

Zeit: 22:08 (22:08 UTC)

Prognose

Neuester Wetterbericht von vor 5 Stunden und 8 Minuten, um 17:00 UTC
Gültige Prognose vom 24 um 18 UTC bis 25 um 24 UTC
Wind 8 kt aus West/Südwest
Sichtweite: 8000 m
Leicht bewölkt in der Höhe von 2000 ft

TAF: DFFD 241700Z 2418/2524 25008KT 8000 FEW020

Wetterbeobachtungen und Prognosen von mehr als 4000 Flughäfen (METAR und TAF Bericht).

Die verfügbaren Stationen werden durch gelbe und rote Markierungen auf der Karte dargestellt.

Führen Sie die Maus auf sie, um den Namen der Station zu sehen.

Darauf klicken, um die Beobachtung von Wetterbeobachtungen und Prognosen zu sehen.

Um die Karte zu ändern : klicken Sie auf den grünen Tasten mit einem schwarzen Kreuz Zum Vergrößern, auf den grünen Button mit einem Gedankenstrich zu verkleinern, oder auf die grünen Pfeile für benachbarte Karten.


METAR-TAF: